Time;durP1;ratioP1;P1;durP2;ratioP2;P2;SDS_P1;SDS_P2;PMS_P1;PMS_P2;Temp;Humidity;BMP_temperature;BMP_pressure;BME280_temperature;BME280_humidity;BME280_pressure;Samples;Min_cycle;Max_cycle;Signal;HPM_P1;HPM_P2
2022/06/24 00:02:04;;;;;;;10.90;5.70;;;;;;;;;;4963142;28;20203;-88
2022/06/24 00:05:13;;;;;;;7.57;5.00;;;;;;;;;;4952192;28;20198;-88
2022/06/24 00:08:17;;;;;;;7.90;5.23;;;;;;;;;;4962753;28;20203;-88
2022/06/24 00:11:28;;;;;;;6.07;4.43;;;;;;;;;;4951726;28;20210;-88
2022/06/24 00:14:34;;;;;;;10.70;4.80;;;;;;;;;;4951830;28;20203;-88
2022/06/24 00:17:38;;;;;;;7.03;4.20;;;;;;;;;;4963029;28;20198;-88
2022/06/24 00:20:44;;;;;;;10.20;3.07;;;;;;;;;;4957108;28;20218;-88
2022/06/24 00:23:48;;;;;;;3.83;2.30;;;;;;;;;;4958415;28;20178;-88
2022/06/24 00:26:53;;;;;;;7.67;2.73;;;;;;;;;;4958640;28;20182;-86
2022/06/24 00:29:57;;;;;;;4.80;1.60;;;;;;;;;;4970655;28;20222;-86
2022/06/24 00:33:13;;;;;;;7.90;1.80;;;;;;;;;;4948103;28;20523;-85
2022/06/24 00:36:18;;;;;;;5.23;1.47;;;;;;;;;;4959149;28;20183;-86
2022/06/24 00:39:33;;;;;;;6.47;1.50;;;;;;;;;;4947871;28;20182;-86
2022/06/24 00:42:42;;;;;;;6.00;1.73;;;;;;;;;;4969210;28;20218;-88
2022/06/24 00:45:51;;;;;;;8.43;1.60;;;;;;;;;;4969249;28;20527;-88
2022/06/24 00:48:57;;;;;;;10.13;1.63;;;;;;;;;;4947270;28;20187;-88
2022/06/24 00:52:07;;;;;;;6.63;1.97;;;;;;;;;;4969329;28;20186;-88
2022/06/24 00:55:27;;;;;;;7.43;1.80;;;;;;;;;;4958125;28;20179;-89
2022/06/24 00:58:33;;;;;;;4.67;1.63;;;;;;;;;;4958375;28;20187;-86
2022/06/24 01:01:39;;;;;;;7.20;1.57;;;;;;;;;;4958159;28;20226;-86
2022/06/24 01:04:43;;;;;;;11.00;1.70;;;;;;;;;;4969534;28;20187;-86
2022/06/24 01:07:47;;;;;;;8.63;1.53;;;;;;;;;;4958420;28;20190;-88
2022/06/24 01:10:51;;;;;;;4.07;1.57;;;;;;;;;;4957841;28;20218;-88
2022/06/24 01:13:56;;;;;;;4.50;1.70;;;;;;;;;;4947401;28;20206;-86
2022/06/24 01:17:00;;;;;;;4.83;1.70;;;;;;;;;;4958052;28;20183;-88
2022/06/24 01:20:09;;;;;;;5.77;1.53;;;;;;;;;;4968980;28;20222;-88
2022/06/24 01:23:21;;;;;;;3.47;1.73;;;;;;;;;;4957787;28;20219;-88
2022/06/24 01:26:25;;;;;;;5.47;1.67;;;;;;;;;;4958082;28;20532;-88
2022/06/24 01:29:30;;;;;;;4.93;1.50;;;;;;;;;;4979818;28;20270;-88
2022/06/24 01:32:34;;;;;;;7.33;2.10;;;;;;;;;;4954081;28;20626;-88
2022/06/24 01:35:38;;;;;;;3.73;1.57;;;;;;;;;;4965750;28;20175;-88
2022/06/24 01:38:43;;;;;;;4.53;1.60;;;;;;;;;;4965626;28;20527;-88
2022/06/24 01:41:47;;;;;;;5.23;1.63;;;;;;;;;;4965573;28;20230;-88
2022/06/24 01:44:52;;;;;;;6.17;1.63;;;;;;;;;;4954784;28;20179;-88
2022/06/24 01:47:56;;;;;;;5.10;1.80;;;;;;;;;;4943455;28;20179;-88
2022/06/24 01:51:00;;;;;;;4.77;1.80;;;;;;;;;;4954904;28;20214;-86
2022/06/24 01:54:04;;;;;;;6.80;1.90;;;;;;;;;;4954936;28;20179;-86
2022/06/24 01:57:08;;;;;;;6.27;1.47;;;;;;;;;;4976945;28;20187;-86
2022/06/24 02:00:13;;;;;;;5.13;1.70;;;;;;;;;;4954888;28;20214;-86
2022/06/24 02:03:17;;;;;;;5.43;1.70;;;;;;;;;;4954588;28;20210;-86
2022/06/24 02:06:22;;;;;;;7.50;1.83;;;;;;;;;;4954895;28;20187;-85
2022/06/24 02:09:26;;;;;;;7.70;2.23;;;;;;;;;;4954692;28;20562;-85
2022/06/24 02:15:53;;;;;;;3.83;1.60;;;;;;;;;;4964944;28;20179;-88
2022/06/24 02:18:58;;;;;;;4.23;1.83;;;;;;;;;;4965342;28;20179;-88
2022/06/24 02:22:02;;;;;;;6.63;1.73;;;;;;;;;;4953916;28;20539;-88
2022/06/24 02:25:06;;;;;;;8.07;1.80;;;;;;;;;;4954213;28;20183;-88
2022/06/24 02:28:10;;;;;;;6.17;1.40;;;;;;;;;;4943404;28;20183;-86
2022/06/24 02:31:15;;;;;;;3.37;1.80;;;;;;;;;;4965434;28;20689;-86
2022/06/24 02:34:19;;;;;;;4.83;1.67;;;;;;;;;;4954388;28;20539;-86
2022/06/24 02:37:23;;;;;;;5.67;1.60;;;;;;;;;;4965344;28;20187;-88
2022/06/24 02:40:47;;;;;;;4.37;1.60;;;;;;;;;;4953440;28;20222;-88
2022/06/24 02:43:51;;;;;;;5.40;1.30;;;;;;;;;;4953344;28;20211;-88
2022/06/24 02:46:55;;;;;;;3.70;1.43;;;;;;;;;;4953618;28;20191;-88
2022/06/24 02:49:59;;;;;;;5.07;1.50;;;;;;;;;;4964424;28;20223;-88
2022/06/24 02:53:03;;;;;;;4.37;1.63;;;;;;;;;;4942506;28;20175;-88
2022/06/24 02:56:13;;;;;;;4.93;1.40;;;;;;;;;;4953304;28;20178;-88
2022/06/24 02:59:17;;;;;;;5.80;1.50;;;;;;;;;;4953401;28;20187;-88
2022/06/24 03:02:21;;;;;;;2.57;1.20;;;;;;;;;;4953106;28;20203;-88
2022/06/24 03:05:27;;;;;;;7.03;1.33;;;;;;;;;;4953239;28;20183;-88
2022/06/24 03:08:31;;;;;;;2.73;1.13;;;;;;;;;;4963581;28;20615;-87
2022/06/24 03:11:35;;;;;;;4.67;1.43;;;;;;;;;;4933456;29;20219;-88
2022/06/24 03:14:40;;;;;;;2.93;1.40;;;;;;;;;;4960975;28;20210;-88
2022/06/24 03:17:44;;;;;;;3.73;1.10;;;;;;;;;;4952960;28;20183;-86
2022/06/24 03:20:48;;;;;;;3.80;1.60;;;;;;;;;;4942320;28;20588;-86
2022/06/24 03:23:52;;;;;;;4.30;1.50;;;;;;;;;;4964643;28;20218;-86
2022/06/24 03:26:56;;;;;;;5.33;1.60;;;;;;;;;;4941878;28;20206;-87
2022/06/24 03:30:00;;;;;;;2.40;1.47;;;;;;;;;;4952494;28;20218;-86
2022/06/24 03:33:05;;;;;;;6.30;1.47;;;;;;;;;;4938032;28;20194;-87
2022/06/24 03:36:10;;;;;;;2.93;1.27;;;;;;;;;;4943649;28;20183;-87
2022/06/24 03:39:15;;;;;;;5.87;1.27;;;;;;;;;;4945618;28;20183;-87
2022/06/24 03:42:20;;;;;;;6.50;1.63;;;;;;;;;;4953826;28;20206;-91
2022/06/24 03:45:24;;;;;;;5.97;1.50;;;;;;;;;;4957549;28;20207;-86
2022/06/24 03:48:29;;;;;;;5.37;1.23;;;;;;;;;;4946502;28;20183;-85
2022/06/24 03:51:34;;;;;;;6.10;1.10;;;;;;;;;;4946865;28;20211;-86
2022/06/24 03:54:38;;;;;;;3.63;1.20;;;;;;;;;;4945005;28;20179;-86
2022/06/24 03:57:43;;;;;;;3.87;1.23;;;;;;;;;;4945944;28;20187;-85
2022/06/24 04:00:47;;;;;;;8.20;1.40;;;;;;;;;;4955781;28;20222;-86
2022/06/24 04:03:51;;;;;;;4.63;1.40;;;;;;;;;;4945639;28;20206;-85
2022/06/24 04:06:56;;;;;;;6.10;1.40;;;;;;;;;;4944878;28;20187;-85
2022/06/24 04:10:00;;;;;;;5.13;1.50;;;;;;;;;;4966803;28;20218;-86
2022/06/24 04:13:04;;;;;;;3.57;1.60;;;;;;;;;;4951880;28;20199;-86
2022/06/24 04:16:09;;;;;;;3.07;1.40;;;;;;;;;;4952193;28;20175;-86
2022/06/24 04:19:12;;;;;;;3.40;1.30;;;;;;;;;;4941189;28;20202;-86
2022/06/24 04:22:17;;;;;;;7.30;1.30;;;;;;;;;;4962702;28;20198;-86
2022/06/24 04:25:21;;;;;;;4.53;1.10;;;;;;;;;;4951967;28;20183;-86
2022/06/24 04:28:25;;;;;;;5.63;1.23;;;;;;;;;;4941106;28;20190;-86
2022/06/24 04:31:29;;;;;;;6.93;1.20;;;;;;;;;;4962597;28;20222;-86
2022/06/24 04:34:36;;;;;;;4.90;1.33;;;;;;;;;;4952073;28;20187;-86
2022/06/24 04:37:40;;;;;;;3.30;1.27;;;;;;;;;;4941036;28;20187;-86
2022/06/24 04:40:44;;;;;;;4.73;1.37;;;;;;;;;;4951397;28;20218;-86
2022/06/24 04:43:49;;;;;;;4.13;1.03;;;;;;;;;;4951819;28;20206;-86
2022/06/24 04:46:53;;;;;;;5.13;1.40;;;;;;;;;;4940910;28;20523;-86
2022/06/24 04:49:57;;;;;;;4.13;1.53;;;;;;;;;;4951716;28;20214;-86
2022/06/24 04:53:02;;;;;;;3.53;1.30;;;;;;;;;;4962699;28;20183;-86
2022/06/24 04:56:06;;;;;;;4.97;1.27;;;;;;;;;;4940994;28;20519;-86
2022/06/24 04:59:10;;;;;;;3.97;1.20;;;;;;;;;;4940689;28;20187;-86
2022/06/24 05:02:14;;;;;;;4.40;1.00;;;;;;;;;;4941194;28;20187;-86
2022/06/24 05:05:18;;;;;;;4.70;1.60;;;;;;;;;;4951887;28;20171;-85
2022/06/24 05:08:23;;;;;;;5.37;1.33;;;;;;;;;;4955195;28;20187;-86
2022/06/24 05:11:27;;;;;;;2.83;1.17;;;;;;;;;;4954951;28;20598;-86
2022/06/24 05:14:32;;;;;;;3.23;1.33;;;;;;;;;;4954694;28;20194;-86
2022/06/24 05:17:36;;;;;;;4.53;1.40;;;;;;;;;;4954885;28;20179;-86
2022/06/24 05:20:40;;;;;;;3.87;1.03;;;;;;;;;;4966266;28;20223;-86
2022/06/24 05:23:44;;;;;;;4.60;1.17;;;;;;;;;;4944235;28;20527;-86
2022/06/24 05:26:49;;;;;;;4.03;1.30;;;;;;;;;;4954793;28;20183;-86
2022/06/24 05:29:53;;;;;;;4.17;1.20;;;;;;;;;;4954818;28;20519;-86
2022/06/24 05:32:57;;;;;;;5.17;1.40;;;;;;;;;;4954740;28;20182;-86
2022/06/24 05:36:01;;;;;;;4.43;1.30;;;;;;;;;;4943508;28;20182;-86
2022/06/24 05:39:06;;;;;;;2.13;0.77;;;;;;;;;;4965740;28;20178;-86
2022/06/24 05:42:10;;;;;;;3.37;1.30;;;;;;;;;;4965418;28;20187;-86
2022/06/24 05:45:14;;;;;;;3.53;1.27;;;;;;;;;;4943686;28;20175;-86
2022/06/24 05:48:18;;;;;;;4.23;1.17;;;;;;;;;;4946707;28;20527;-85
2022/06/24 05:51:23;;;;;;;3.77;1.20;;;;;;;;;;4946534;28;20218;-84
2022/06/24 05:57:50;;;;;;;3.07;1.40;;;;;;;;;;4954352;28;20184;-87
2022/06/24 06:00:54;;;;;;;3.97;1.57;;;;;;;;;;4954629;28;20708;-86
2022/06/24 06:03:59;;;;;;;6.47;1.00;;;;;;;;;;4954284;28;20222;-86
2022/06/24 06:07:03;;;;;;;4.90;1.67;;;;;;;;;;4943357;28;20207;-87
2022/06/24 06:10:08;;;;;;;4.90;1.40;;;;;;;;;;4954288;28;20218;-86
2022/06/24 06:13:13;;;;;;;4.73;1.20;;;;;;;;;;4943188;28;20210;-87
2022/06/24 06:16:18;;;;;;;2.07;1.07;;;;;;;;;;4942961;28;20207;-87
2022/06/24 06:19:22;;;;;;;5.17;1.40;;;;;;;;;;4943057;28;20187;-87
2022/06/24 06:22:26;;;;;;;3.33;1.17;;;;;;;;;;4965309;28;20183;-86
2022/06/24 06:25:31;;;;;;;3.47;1.30;;;;;;;;;;4964714;28;20171;-87
2022/06/24 06:28:36;;;;;;;5.93;1.20;;;;;;;;;;4953753;28;20187;-87
2022/06/24 06:31:40;;;;;;;3.83;1.20;;;;;;;;;;4942604;28;20219;-86
2022/06/24 06:34:44;;;;;;;4.43;1.40;;;;;;;;;;4942939;28;20179;-86
2022/06/24 06:37:48;;;;;;;3.50;1.30;;;;;;;;;;4943044;28;20184;-86
2022/06/24 06:40:53;;;;;;;4.50;1.10;;;;;;;;;;4953525;28;20219;-86
2022/06/24 06:43:57;;;;;;;6.13;1.33;;;;;;;;;;4953541;28;20203;-87
2022/06/24 06:47:01;;;;;;;4.23;1.40;;;;;;;;;;4953806;28;20188;-87
2022/06/24 06:50:06;;;;;;;4.40;1.40;;;;;;;;;;4942606;28;20219;-87
2022/06/24 06:53:10;;;;;;;4.23;1.60;;;;;;;;;;4942600;28;20196;-87
2022/06/24 06:56:14;;;;;;;5.13;1.23;;;;;;;;;;4942762;28;20194;-87
2022/06/24 06:59:18;;;;;;;4.67;1.43;;;;;;;;;;4942499;28;20188;-87
2022/06/24 07:02:22;;;;;;;6.40;1.63;;;;;;;;;;4964488;28;20181;-87
2022/06/24 07:05:26;;;;;;;7.27;1.47;;;;;;;;;;4964272;28;20177;-86
2022/06/24 07:08:30;;;;;;;4.93;1.50;;;;;;;;;;4953513;28;20649;-87
2022/06/24 07:11:34;;;;;;;6.57;1.77;;;;;;;;;;4941798;28;20683;-87
2022/06/24 07:14:42;;;;;;;5.73;1.53;;;;;;;;;;4942385;28;20215;-87
2022/06/24 07:17:46;;;;;;;3.53;1.27;;;;;;;;;;4964047;28;20189;-87
2022/06/24 07:20:50;;;;;;;4.83;1.03;;;;;;;;;;4952826;28;20596;-86
2022/06/24 07:23:54;;;;;;;8.60;1.50;;;;;;;;;;4941759;28;20227;-87
2022/06/24 07:27:02;;;;;;;3.83;1.10;;;;;;;;;;4952875;28;20207;-87
2022/06/24 07:30:07;;;;;;;6.40;1.50;;;;;;;;;;4941393;28;20217;-87
2022/06/24 07:33:11;;;;;;;2.55;0.98;;;;;;;;;;4941756;28;20545;-87
2022/06/24 07:36:15;;;;;;;7.82;1.45;;;;;;;;;;4941778;28;20538;-87
2022/06/24 07:39:19;;;;;;;3.38;1.00;;;;;;;;;;4941883;28;20202;-87
2022/06/24 07:42:24;;;;;;;3.50;1.20;;;;;;;;;;4941582;28;20198;-87
2022/06/24 07:45:28;;;;;;;4.38;1.48;;;;;;;;;;4941553;28;20208;-87
2022/06/24 07:48:31;;;;;;;7.20;1.58;;;;;;;;;;4941422;28;20196;-88
2022/06/24 07:51:36;;;;;;;7.63;1.60;;;;;;;;;;4952048;28;20225;-88
2022/06/24 07:54:40;;;;;;;4.88;1.20;;;;;;;;;;4941753;28;20181;-87
2022/06/24 07:57:44;;;;;;;9.07;1.40;;;;;;;;;;4941712;28;20538;-88
2022/06/24 08:00:48;;;;;;;7.90;1.40;;;;;;;;;;4963775;28;20224;-88
2022/06/24 08:03:52;;;;;;;9.57;1.58;;;;;;;;;;4942809;28;20222;-86
2022/06/24 08:06:57;;;;;;;3.35;1.20;;;;;;;;;;4942874;28;20209;-88
2022/06/24 08:10:02;;;;;;;6.28;1.45;;;;;;;;;;4943072;28;20218;-85
2022/06/24 08:13:06;;;;;;;5.38;1.50;;;;;;;;;;4953681;28;20209;-87
2022/06/24 08:16:10;;;;;;;7.78;1.42;;;;;;;;;;4952818;28;20176;-87
2022/06/24 08:19:15;;;;;;;7.03;1.35;;;;;;;;;;4942748;28;20187;-85
2022/06/24 08:22:20;;;;;;;5.90;1.63;;;;;;;;;;4942073;28;20629;-88
2022/06/24 08:25:25;;;;;;;4.72;1.27;;;;;;;;;;4941609;28;20217;-88
2022/06/24 08:28:28;;;;;;;5.70;1.70;;;;;;;;;;4952489;28;20189;-89
2022/06/24 08:31:33;;;;;;;4.47;1.63;;;;;;;;;;4964250;28;20216;-88
2022/06/24 08:34:37;;;;;;;5.63;1.83;;;;;;;;;;4954046;28;20179;-89
2022/06/24 08:37:41;;;;;;;8.40;1.67;;;;;;;;;;4942613;28;20184;-89
2022/06/24 08:40:52;;;;;;;6.23;1.90;;;;;;;;;;4955356;28;20214;-88
2022/06/24 08:43:58;;;;;;;10.63;1.73;;;;;;;;;;4967436;28;20208;-88
2022/06/24 08:47:03;;;;;;;4.77;1.50;;;;;;;;;;4956209;28;20190;-88
2022/06/24 08:50:08;;;;;;;7.07;1.63;;;;;;;;;;4955850;28;20221;-88
2022/06/24 08:53:17;;;;;;;4.57;1.60;;;;;;;;;;4955953;28;20205;-88
2022/06/24 08:56:21;;;;;;;6.20;1.63;;;;;;;;;;4956249;28;20179;-87
2022/06/24 08:59:28;;;;;;;5.20;1.60;;;;;;;;;;4955445;28;20209;-87
2022/06/24 09:02:32;;;;;;;6.23;1.60;;;;;;;;;;4955392;28;20185;-88
2022/06/24 09:05:37;;;;;;;10.70;1.70;;;;;;;;;;4966181;28;20206;-87
2022/06/24 09:08:48;;;;;;;3.77;1.33;;;;;;;;;;4944641;28;20208;-88
2022/06/24 09:11:56;;;;;;;7.60;1.80;;;;;;;;;;4943713;28;20221;-88
2022/06/24 09:15:03;;;;;;;6.90;1.70;;;;;;;;;;4944203;28;20171;-88
2022/06/24 09:18:07;;;;;;;5.50;1.67;;;;;;;;;;4966273;28;20179;-87
2022/06/24 09:21:24;;;;;;;6.83;1.80;;;;;;;;;;4944086;28;20220;-87
2022/06/24 09:24:45;;;;;;;3.50;1.57;;;;;;;;;;4965973;28;20211;-87
2022/06/24 09:27:49;;;;;;;3.60;1.30;;;;;;;;;;4966069;28;20196;-87
2022/06/24 09:31:03;;;;;;;6.77;1.73;;;;;;;;;;4944093;28;20220;-87
2022/06/24 09:34:14;;;;;;;4.33;1.70;;;;;;;;;;4943788;28;20194;-87
2022/06/24 09:37:38;;;;;;;8.70;1.60;;;;;;;;;;4954531;28;20191;-87
2022/06/24 09:40:42;;;;;;;6.60;1.67;;;;;;;;;;4954574;28;20218;-87
2022/06/24 09:43:47;;;;;;;8.03;1.97;;;;;;;;;;4943603;28;20182;-87
2022/06/24 09:47:05;;;;;;;7.43;1.97;;;;;;;;;;4954726;28;20182;-86
2022/06/24 09:50:09;;;;;;;5.80;1.60;;;;;;;;;;4968433;28;20224;-87
2022/06/24 09:53:14;;;;;;;5.80;1.60;;;;;;;;;;4966935;28;20207;-87
2022/06/24 09:56:20;;;;;;;4.17;1.60;;;;;;;;;;4945033;28;20181;-87
2022/06/24 10:02:50;;;;;;;4.00;1.60;;;;;;;;;;4954426;28;20187;-87
2022/06/24 10:06:06;;;;;;;5.07;1.40;;;;;;;;;;4943136;28;20555;-87
2022/06/24 10:09:10;;;;;;;4.37;1.70;;;;;;;;;;4954292;28;20187;-88
2022/06/24 10:12:17;;;;;;;3.27;1.87;;;;;;;;;;4988309;23;20231;-86
2022/06/24 10:15:21;;;;;;;9.13;1.60;;;;;;;;;;4954075;28;20638;-86
2022/06/24 10:18:30;;;;;;;5.60;2.03;;;;;;;;;;4953836;28;20180;-85
2022/06/24 10:21:34;;;;;;;5.77;1.67;;;;;;;;;;4964920;28;20218;-85
2022/06/24 10:24:40;;;;;;;7.07;2.20;;;;;;;;;;4954004;28;20215;-85
2022/06/24 10:27:59;;;;;;;6.70;1.70;;;;;;;;;;4953834;28;20190;-85
2022/06/24 10:31:04;;;;;;;7.07;2.00;;;;;;;;;;4943204;28;20548;-85
2022/06/24 10:34:20;;;;;;;7.27;2.00;;;;;;;;;;4942938;28;20187;-85
2022/06/24 10:37:26;;;;;;;2.90;1.30;;;;;;;;;;4942983;28;20182;-85
2022/06/24 10:40:30;;;;;;;3.90;1.60;;;;;;;;;;4942950;28;20566;-85
2022/06/24 10:43:34;;;;;;;6.33;1.63;;;;;;;;;;4953612;28;20179;-85
2022/06/24 10:46:38;;;;;;;4.57;1.20;;;;;;;;;;4942464;28;20181;-85
2022/06/24 10:49:51;;;;;;;3.80;1.20;;;;;;;;;;4953740;28;20175;-85
2022/06/24 10:53:00;;;;;;;5.43;1.47;;;;;;;;;;4942556;28;20192;-85
2022/06/24 10:56:04;;;;;;;3.17;1.80;;;;;;;;;;4942532;28;20185;-85
2022/06/24 10:59:09;;;;;;;3.00;1.60;;;;;;;;;;4953403;28;20636;-85
2022/06/24 11:02:18;;;;;;;4.97;1.50;;;;;;;;;;4942398;28;20571;-85
2022/06/24 11:05:26;;;;;;;5.50;1.83;;;;;;;;;;4953704;28;20218;-85
2022/06/24 11:08:36;;;;;;;3.57;1.57;;;;;;;;;;4953568;28;20179;-86
2022/06/24 11:11:40;;;;;;;4.03;1.60;;;;;;;;;;4953311;23;20239;-77
2022/06/24 11:14:44;;;;;;;4.83;1.37;;;;;;;;;;4977803;28;20183;-77
2022/06/24 11:17:48;;;;;;;4.57;1.40;;;;;;;;;;4954767;28;20534;-77
2022/06/24 11:21:01;;;;;;;4.30;1.30;;;;;;;;;;4965794;28;20224;-77
2022/06/24 11:24:06;;;;;;;3.53;1.20;;;;;;;;;;4976617;28;20180;-77
2022/06/24 11:27:10;;;;;;;3.20;1.10;;;;;;;;;;4977416;28;20193;-77
2022/06/24 11:30:14;;;;;;;5.00;1.43;;;;;;;;;;4976664;28;20198;-77
2022/06/24 11:33:20;;;;;;;6.80;1.60;;;;;;;;;;4965590;28;20633;-77
2022/06/24 11:36:27;;;;;;;5.93;1.30;;;;;;;;;;4963195;28;20543;-76
2022/06/24 11:39:32;;;;;;;5.53;1.50;;;;;;;;;;4952586;28;20188;-76
2022/06/24 11:42:36;;;;;;;8.33;1.40;;;;;;;;;;4975369;28;20582;-76
2022/06/24 11:45:45;;;;;;;4.10;1.37;;;;;;;;;;4963524;28;20568;-76
2022/06/24 11:49:23;;;;;;;4.43;1.13;;;;;;;;;;4975289;28;20188;-77
2022/06/24 11:52:27;;;;;;;2.83;1.30;;;;;;;;;;4931338;28;20693;-76
2022/06/24 11:55:36;;;;;;;6.20;1.30;;;;;;;;;;4976084;28;20514;-76
2022/06/24 11:58:41;;;;;;;4.83;1.43;;;;;;;;;;4975743;28;20184;-76
2022/06/24 12:01:45;;;;;;;4.53;1.33;;;;;;;;;;4975805;28;20217;-77
2022/06/24 12:04:50;;;;;;;6.00;1.87;;;;;;;;;;4953380;28;20224;-77
2022/06/24 12:07:55;;;;;;;4.30;1.63;;;;;;;;;;4975144;28;20206;-77
2022/06/24 12:10:59;;;;;;;3.23;1.40;;;;;;;;;;4964053;28;20223;-77
2022/06/24 12:14:08;;;;;;;4.43;1.30;;;;;;;;;;4964351;28;20191;-77
2022/06/24 12:17:12;;;;;;;4.03;1.20;;;;;;;;;;4953886;28;20183;-77
2022/06/24 12:20:22;;;;;;;4.40;1.40;;;;;;;;;;4964749;28;20183;-77
2022/06/24 12:23:36;;;;;;;4.27;1.40;;;;;;;;;;4953739;28;20183;-76
2022/06/24 12:26:43;;;;;;;4.67;1.33;;;;;;;;;;4976626;28;20211;-77
2022/06/24 12:29:48;;;;;;;4.47;1.70;;;;;;;;;;4964811;28;20527;-77
2022/06/24 12:32:58;;;;;;;11.80;1.80;;;;;;;;;;4964795;28;20183;-77
2022/06/24 12:36:12;;;;;;;6.40;1.93;;;;;;;;;;4976607;28;20190;-77
2022/06/24 12:39:26;;;;;;;5.27;1.83;;;;;;;;;;4965255;28;20183;-77
2022/06/24 12:42:30;;;;;;;5.80;1.67;;;;;;;;;;4976770;28;20225;-77
2022/06/24 12:45:37;;;;;;;5.43;1.50;;;;;;;;;;4965451;28;20673;-77
2022/06/24 12:52:04;;;;;;;9.70;2.03;;;;;;;;;;4977541;28;20226;-77
2022/06/24 12:55:13;;;;;;;6.70;1.97;;;;;;;;;;4976993;28;20181;-78
2022/06/24 12:58:17;;;;;;;12.27;1.67;;;;;;;;;;4965667;28;20189;-77
2022/06/24 13:01:22;;;;;;;6.25;1.40;;;;;;;;;;4965501;28;20233;-78
2022/06/24 13:04:26;;;;;;;4.80;1.90;;;;;;;;;;4977729;28;20183;-77
2022/06/24 13:07:30;;;;;;;5.85;1.88;;;;;;;;;;4954452;28;20180;-78
2022/06/24 13:10:35;;;;;;;3.85;1.70;;;;;;;;;;4977072;28;20238;-77
2022/06/24 13:13:39;;;;;;;4.88;1.80;;;;;;;;;;4977894;28;20188;-77
2022/06/24 13:16:44;;;;;;;6.68;1.83;;;;;;;;;;4955556;28;20523;-77
2022/06/24 13:19:48;;;;;;;3.43;1.40;;;;;;;;;;4977522;28;20630;-78
2022/06/24 13:22:52;;;;;;;6.00;1.97;;;;;;;;;;4977301;28;20181;-77
2022/06/24 13:25:56;;;;;;;5.10;2.05;;;;;;;;;;4965125;28;20207;-77
2022/06/24 13:29:01;;;;;;;3.57;1.60;;;;;;;;;;4967846;28;20191;-77
2022/06/24 13:32:05;;;;;;;11.10;1.83;;;;;;;;;;4980685;28;20225;-77
2022/06/24 13:35:09;;;;;;;7.97;1.73;;;;;;;;;;4980451;28;20553;-77
2022/06/24 13:38:13;;;;;;;5.95;2.03;;;;;;;;;;4968773;28;20186;-77
2022/06/24 13:41:18;;;;;;;4.88;1.98;;;;;;;;;;4980748;28;20693;-77
2022/06/24 13:44:22;;;;;;;5.78;1.80;;;;;;;;;;4980395;28;20188;-77
2022/06/24 13:47:26;;;;;;;9.05;1.60;;;;;;;;;;4968684;28;20168;-77
2022/06/24 13:50:30;;;;;;;6.70;1.70;;;;;;;;;;4948249;28;20184;-78
2022/06/24 13:53:34;;;;;;;5.47;1.90;;;;;;;;;;4980623;28;20186;-78
2022/06/24 13:56:38;;;;;;;3.38;1.70;;;;;;;;;;4980884;28;20178;-77
2022/06/24 13:59:42;;;;;;;2.30;1.57;;;;;;;;;;4980376;28;20177;-77
2022/06/24 14:02:46;;;;;;;4.37;1.60;;;;;;;;;;4979694;28;20178;-77
2022/06/24 14:05:53;;;;;;;5.67;1.67;;;;;;;;;;4975351;28;20224;-78
2022/06/24 14:08:58;;;;;;;3.47;1.60;;;;;;;;;;4938818;29;20193;-77
2022/06/24 14:12:02;;;;;;;4.93;1.60;;;;;;;;;;4959302;28;20231;-77
2022/06/24 14:15:08;;;;;;;3.00;1.50;;;;;;;;;;4973171;28;20188;-77
2022/06/24 14:18:13;;;;;;;8.10;1.87;;;;;;;;;;4979546;28;20190;-78
2022/06/24 14:21:35;;;;;;;6.13;1.50;;;;;;;;;;4965225;28;20219;-78
2022/06/24 14:24:59;;;;;;;3.47;1.40;;;;;;;;;;4948365;28;20195;-78
2022/06/24 14:28:04;;;;;;;2.97;1.40;;;;;;;;;;4963777;28;20187;-77
2022/06/24 14:31:08;;;;;;;6.00;1.83;;;;;;;;;;4950862;28;20218;-76
2022/06/24 14:34:12;;;;;;;6.13;1.50;;;;;;;;;;4962571;28;20223;-76
2022/06/24 14:40:39;;;;;;;7.67;1.60;;;;;;;;;;4972510;28;20230;-77
2022/06/24 14:43:43;;;;;;;3.47;1.30;;;;;;;;;;4950185;28;20187;-76
2022/06/24 14:46:47;;;;;;;5.50;1.40;;;;;;;;;;4963972;28;20224;-79
2022/06/24 14:49:52;;;;;;;4.03;1.40;;;;;;;;;;4975723;28;20196;-75
2022/06/24 14:52:56;;;;;;;5.87;1.37;;;;;;;;;;4975769;28;20188;-76
2022/06/24 14:56:00;;;;;;;2.27;1.40;;;;;;;;;;4976693;28;20183;-76
2022/06/24 14:59:05;;;;;;;2.87;1.20;;;;;;;;;;4982155;28;20187;-78
2022/06/24 15:02:09;;;;;;;4.47;1.43;;;;;;;;;;4972149;28;20220;-79
2022/06/24 15:05:13;;;;;;;7.93;1.97;;;;;;;;;;4983430;28;20183;-79
2022/06/24 15:08:18;;;;;;;4.03;1.57;;;;;;;;;;4984558;28;20638;-79
2022/06/24 15:11:22;;;;;;;2.33;1.17;;;;;;;;;;4981390;28;20235;-79
2022/06/24 15:14:26;;;;;;;6.60;1.80;;;;;;;;;;4982400;28;20203;-79
2022/06/24 15:17:30;;;;;;;2.80;1.60;;;;;;;;;;4971168;28;20194;-79
2022/06/24 15:20:34;;;;;;;3.60;1.67;;;;;;;;;;4971682;28;20223;-80
2022/06/24 15:23:38;;;;;;;4.40;1.90;;;;;;;;;;4985988;28;20178;-79
2022/06/24 15:26:43;;;;;;;4.23;1.63;;;;;;;;;;4969588;28;20210;-78
2022/06/24 15:29:47;;;;;;;6.13;2.00;;;;;;;;;;4960184;28;20183;-78
2022/06/24 15:32:52;;;;;;;4.43;1.73;;;;;;;;;;4971387;28;20179;-78
2022/06/24 15:35:56;;;;;;;7.37;1.80;;;;;;;;;;4960365;28;20539;-80
2022/06/24 15:39:00;;;;;;;4.73;1.87;;;;;;;;;;4972364;28;20513;-79
2022/06/24 15:42:05;;;;;;;6.00;2.03;;;;;;;;;;4969941;28;20226;-79
2022/06/24 15:45:10;;;;;;;3.93;2.27;;;;;;;;;;4962859;28;20183;-79
2022/06/24 15:48:14;;;;;;;5.80;1.80;;;;;;;;;;4974377;28;20511;-79
2022/06/24 15:51:18;;;;;;;4.10;1.87;;;;;;;;;;4955677;28;20230;-77
2022/06/24 15:54:23;;;;;;;2.83;1.87;;;;;;;;;;4967886;28;20183;-78
2022/06/24 15:57:28;;;;;;;3.67;2.03;;;;;;;;;;4956626;28;20179;-78
2022/06/24 16:00:32;;;;;;;2.77;1.50;;;;;;;;;;4967030;28;20179;-78
2022/06/24 16:03:35;;;;;;;3.37;2.03;;;;;;;;;;4955705;28;20191;-78
2022/06/24 16:06:40;;;;;;;6.57;2.00;;;;;;;;;;4954055;28;20207;-78
2022/06/24 16:09:44;;;;;;;15.93;2.33;;;;;;;;;;4954210;28;20515;-78
2022/06/24 16:12:48;;;;;;;7.13;2.23;;;;;;;;;;4990313;23;20245;-77
2022/06/24 16:15:54;;;;;;;6.50;2.43;;;;;;;;;;4974726;28;20175;-77
2022/06/24 16:18:57;;;;;;;5.53;2.20;;;;;;;;;;4962990;28;20183;-77
2022/06/24 16:22:02;;;;;;;7.83;2.23;;;;;;;;;;4960173;28;20215;-77
2022/06/24 16:28:40;;;;;;;6.30;2.40;;;;;;;;;;4943489;29;20176;-77
2022/06/24 16:31:44;;;;;;;7.77;1.90;;;;;;;;;;4933553;29;20223;-78
2022/06/24 16:34:49;;;;;;;6.50;2.33;;;;;;;;;;4944542;29;20183;-77
2022/06/24 16:37:55;;;;;;;4.73;1.87;;;;;;;;;;4933148;29;20171;-77
2022/06/24 16:40:59;;;;;;;5.50;1.60;;;;;;;;;;4934187;28;20219;-77
2022/06/24 16:44:04;;;;;;;2.30;1.23;;;;;;;;;;4957858;29;20183;-77
2022/06/24 16:47:08;;;;;;;2.30;1.40;;;;;;;;;;4934457;29;20207;-76
2022/06/24 16:50:12;;;;;;;7.47;1.30;;;;;;;;;;4955563;29;20180;-77
2022/06/24 16:53:17;;;;;;;4.30;1.37;;;;;;;;;;4955233;29;20176;-77
2022/06/24 16:56:21;;;;;;;2.30;1.23;;;;;;;;;;4943625;29;20175;-77
2022/06/24 16:59:25;;;;;;;3.80;1.50;;;;;;;;;;4955612;29;20184;-77
2022/06/24 17:02:29;;;;;;;3.47;1.40;;;;;;;;;;4957474;28;20215;-77
2022/06/24 17:05:34;;;;;;;3.10;1.10;;;;;;;;;;4958535;29;20199;-77
2022/06/24 17:08:38;;;;;;;3.03;1.17;;;;;;;;;;4946842;29;20188;-77
2022/06/24 17:11:42;;;;;;;3.37;1.33;;;;;;;;;;4946821;29;20227;-77
2022/06/24 17:14:47;;;;;;;4.07;1.57;;;;;;;;;;4947380;29;20192;-77
2022/06/24 17:17:50;;;;;;;5.10;1.20;;;;;;;;;;4935784;29;20183;-77
2022/06/24 17:20:55;;;;;;;5.27;1.37;;;;;;;;;;4946728;28;20567;-77
2022/06/24 17:23:59;;;;;;;4.10;1.10;;;;;;;;;;4946935;29;20623;-77
2022/06/24 17:27:03;;;;;;;3.37;1.30;;;;;;;;;;4947148;29;20223;-76
2022/06/24 17:30:08;;;;;;;3.27;1.23;;;;;;;;;;4958340;29;20199;-76
2022/06/24 17:33:13;;;;;;;6.63;1.47;;;;;;;;;;4947563;29;20540;-78
2022/06/24 17:36:17;;;;;;;9.07;1.40;;;;;;;;;;4947569;29;20183;-77
2022/06/24 17:39:21;;;;;;;2.80;1.23;;;;;;;;;;4947121;29;20183;-77
2022/06/24 17:42:26;;;;;;;5.13;1.47;;;;;;;;;;4946819;29;20231;-77
2022/06/24 17:45:30;;;;;;;5.33;1.53;;;;;;;;;;4947678;29;20187;-78
2022/06/24 17:48:34;;;;;;;4.53;1.60;;;;;;;;;;4947443;29;20516;-77
2022/06/24 17:51:38;;;;;;;3.03;0.90;;;;;;;;;;4935922;28;20226;-77
2022/06/24 17:54:42;;;;;;;4.80;1.03;;;;;;;;;;4946757;29;20183;-77
2022/06/24 17:57:46;;;;;;;3.83;1.30;;;;;;;;;;4934705;29;20184;-77
2022/06/24 18:00:51;;;;;;;2.60;1.20;;;;;;;;;;4935157;28;20227;-76
2022/06/24 18:03:54;;;;;;;4.13;1.33;;;;;;;;;;4945897;29;20187;-77
2022/06/24 18:06:58;;;;;;;3.73;1.33;;;;;;;;;;4959211;29;20203;-77
2022/06/24 18:10:03;;;;;;;4.20;1.07;;;;;;;;;;4946951;29;20183;-77
2022/06/24 18:13:07;;;;;;;4.43;1.63;;;;;;;;;;4946267;28;20211;-77
2022/06/24 18:16:11;;;;;;;3.63;1.27;;;;;;;;;;4937005;29;20183;-79
2022/06/24 18:19:15;;;;;;;4.20;1.70;;;;;;;;;;4947658;29;20184;-78
2022/06/24 18:22:19;;;;;;;2.23;1.30;;;;;;;;;;4946659;29;20219;-78
2022/06/24 18:25:24;;;;;;;3.03;1.40;;;;;;;;;;4935678;29;20203;-78
2022/06/24 18:28:28;;;;;;;4.93;1.50;;;;;;;;;;4942945;29;20690;-77
2022/06/24 18:31:32;;;;;;;4.07;1.23;;;;;;;;;;4934577;29;20214;-78
2022/06/24 18:34:36;;;;;;;3.67;1.90;;;;;;;;;;4945260;29;20203;-77
2022/06/24 18:37:40;;;;;;;5.87;1.33;;;;;;;;;;4947060;29;20195;-78
2022/06/24 18:40:45;;;;;;;7.17;2.13;;;;;;;;;;4936795;28;20567;-77
2022/06/24 18:43:49;;;;;;;5.97;1.70;;;;;;;;;;4958274;29;20512;-78
2022/06/24 18:46:53;;;;;;;4.53;1.80;;;;;;;;;;4946880;29;20254;-78
2022/06/24 18:49:57;;;;;;;3.73;1.70;;;;;;;;;;4936191;29;20179;-77
2022/06/24 18:53:01;;;;;;;4.47;1.90;;;;;;;;;;4959447;29;20532;-77